createdAt,value
2023-04-29T00:01:59.384Z,12.70
2023-04-29T00:07:01.250Z,12.60
2023-04-29T00:12:03.255Z,12.70
2023-04-29T00:17:06.951Z,12.60
2023-04-29T00:22:09.378Z,12.60
2023-04-29T00:27:12.110Z,12.60
2023-04-29T00:32:15.388Z,12.60
2023-04-29T00:37:17.576Z,12.70
2023-04-29T00:42:19.900Z,12.70
2023-04-29T00:47:23.605Z,12.60
2023-04-29T00:52:27.465Z,12.70
2023-04-29T00:57:30.334Z,12.80
2023-04-29T01:02:34.293Z,12.80
2023-04-29T01:07:44.305Z,12.70
2023-04-29T01:12:48.075Z,12.70
2023-04-29T01:17:57.144Z,12.80
2023-04-29T01:22:59.383Z,12.70
2023-04-29T01:28:13.881Z,12.80
2023-04-29T01:33:21.300Z,12.60
2023-04-29T01:38:32.359Z,12.70
2023-04-29T01:43:38.770Z,12.70
2023-04-29T01:48:41.199Z,12.70
2023-04-29T01:53:43.758Z,12.40
2023-04-29T01:58:47.065Z,12.30
2023-04-29T02:03:49.254Z,12.30
2023-04-29T02:08:51.292Z,12.30
2023-04-29T02:13:55.321Z,12.30
2023-04-29T02:18:57.260Z,12.30
2023-04-29T02:23:58.922Z,12.20
2023-04-29T02:29:03.908Z,12.30
2023-04-29T02:34:06.446Z,12.20
2023-04-29T02:39:08.575Z,12.20
2023-04-29T02:44:12.570Z,12.10
2023-04-29T02:49:15.164Z,12.20
2023-04-29T02:54:17.753Z,12.20
2023-04-29T02:59:21.514Z,12.20
2023-04-29T03:04:24.215Z,12.20
2023-04-29T03:09:26.765Z,12.20
2023-04-29T03:14:30.214Z,12.20
2023-04-29T03:19:32.340Z,12.20
2023-04-29T03:24:34.670Z,12.10
2023-04-29T03:29:38.342Z,12.10
2023-04-29T03:34:40.981Z,12.00
2023-04-29T03:39:43.376Z,12.00
2023-04-29T03:44:47.185Z,12.00
2023-04-29T03:49:49.495Z,12.00
2023-04-29T03:54:51.833Z,12.10
2023-04-29T03:59:55.207Z,12.10
2023-04-29T04:04:59.153Z,12.00
2023-04-29T04:10:01.323Z,11.90
2023-04-29T04:15:05.388Z,11.90
2023-04-29T04:20:08.358Z,11.90
2023-04-29T04:25:11.948Z,11.90
2023-04-29T04:30:16.483Z,11.90
2023-04-29T04:35:19.085Z,11.90
2023-04-29T04:40:21.856Z,11.90
2023-04-29T04:45:25.595Z,12.00
2023-04-29T04:50:29.716Z,12.00
2023-04-29T04:55:33.679Z,12.10
2023-04-29T05:00:37.056Z,12.10
2023-04-29T05:05:39.307Z,12.10
2023-04-29T05:10:41.355Z,12.20
2023-04-29T05:15:45.103Z,12.20
2023-04-29T05:20:47.052Z,12.30
2023-04-29T05:25:49.435Z,12.50
2023-04-29T05:30:53.978Z,12.60
2023-04-29T05:35:55.949Z,12.80
2023-04-29T05:40:58.054Z,12.80
2023-04-29T05:46:01.834Z,12.80
2023-04-29T05:51:03.841Z,13.20
2023-04-29T05:56:08.495Z,13.50
2023-04-29T06:01:12.095Z,13.80
2023-04-29T06:06:14.747Z,14.00
2023-04-29T06:11:16.644Z,14.00
2023-04-29T06:16:20.323Z,14.40
2023-04-29T06:21:22.545Z,14.80
2023-04-29T06:26:25.012Z,14.80
2023-04-29T06:32:00.221Z,14.90
2023-04-29T06:37:27.709Z,15.30
2023-04-29T06:43:01.694Z,15.50
2023-04-29T06:48:05.883Z,15.00
2023-04-29T06:53:07.947Z,15.20
2023-04-29T06:58:09.962Z,15.70
2023-04-29T07:03:13.654Z,16.00
2023-04-29T07:08:16.279Z,16.30
2023-04-29T07:13:18.144Z,16.20
2023-04-29T07:18:21.347Z,15.60
2023-04-29T07:23:23.517Z,15.40
2023-04-29T07:28:26.060Z,15.40
2023-04-29T07:33:29.715Z,16.20
2023-04-29T07:38:33.175Z,16.70
2023-04-29T07:43:35.646Z,16.70
2023-04-29T07:48:40.817Z,16.30
2023-04-29T07:53:43.642Z,16.70
2023-04-29T07:58:45.795Z,17.20
2023-04-29T08:03:49.345Z,17.70
2023-04-29T08:08:51.715Z,18.00
2023-04-29T08:13:53.827Z,18.10
2023-04-29T08:18:57.631Z,18.20
2023-04-29T08:24:00.151Z,18.50
2023-04-29T08:29:02.100Z,18.20
2023-04-29T08:34:05.654Z,18.20
2023-04-29T08:39:08.183Z,18.50
2023-04-29T08:44:10.314Z,18.60
2023-04-29T08:49:14.688Z,20.10
2023-04-29T08:54:16.967Z,20.30
2023-04-29T08:59:20.187Z,19.90
2023-04-29T09:04:48.810Z,19.40
2023-04-29T09:09:52.697Z,20.90
2023-04-29T09:14:55.396Z,21.50
2023-04-29T09:19:59.496Z,20.70
2023-04-29T09:25:14.017Z,20.40
2023-04-29T09:30:17.061Z,21.80
2023-04-29T09:35:28.043Z,21.70
2023-04-29T09:40:31.789Z,21.40
2023-04-29T09:45:38.010Z,21.00
2023-04-29T09:51:02.354Z,21.30
2023-04-29T09:56:05.528Z,23.40
2023-04-29T10:01:08.606Z,24.60
2023-04-29T10:06:13.073Z,24.20
2023-04-29T10:11:16.148Z,23.00
2023-04-29T10:16:28.616Z,23.80
2023-04-29T10:21:32.933Z,23.80
2023-04-29T10:26:37.474Z,23.50
2023-04-29T10:31:42.768Z,23.70
2023-04-29T10:36:47.439Z,23.50
2023-04-29T10:41:49.485Z,23.20
2023-04-29T10:47:11.630Z,22.00
2023-04-29T10:52:18.751Z,21.40
2023-04-29T10:57:23.011Z,22.00
2023-04-29T11:02:25.358Z,22.30
2023-04-29T11:07:32.219Z,23.20
2023-04-29T11:12:34.453Z,23.50
2023-04-29T11:17:39.800Z,24.70
2023-04-29T11:22:52.152Z,25.90
2023-04-29T11:27:55.651Z,25.70
2023-04-29T11:33:01.568Z,25.50
2023-04-29T11:38:06.372Z,24.60
2023-04-29T11:43:08.743Z,23.40
2023-04-29T11:48:10.896Z,23.30
2023-04-29T11:53:14.566Z,24.80
2023-04-29T11:58:17.079Z,27.20
2023-04-29T12:03:21.109Z,29.20
2023-04-29T12:08:25.882Z,30.50
2023-04-29T12:13:29.379Z,29.00
2023-04-29T12:18:31.724Z,27.10
2023-04-29T12:23:37.803Z,25.10
2023-04-29T12:28:42.924Z,27.10
2023-04-29T12:33:45.679Z,27.80
2023-04-29T12:38:49.970Z,28.80
2023-04-29T12:43:52.761Z,30.20
2023-04-29T12:48:55.157Z,30.00
2023-04-29T12:53:59.014Z,28.60
2023-04-29T12:59:07.639Z,27.30
2023-04-29T13:04:11.887Z,30.60
2023-04-29T13:09:18.973Z,29.60
2023-04-29T13:14:21.580Z,30.30
2023-04-29T13:24:29.972Z,31.30
2023-04-29T13:29:32.120Z,33.30
2023-04-29T13:34:34.571Z,32.60
2023-04-29T13:39:38.578Z,31.40
2023-04-29T13:44:52.586Z,33.20
2023-04-29T13:50:16.568Z,34.00
2023-04-29T14:01:01.444Z,32.70
2023-04-29T14:05:48.265Z,34.00
2023-04-29T14:10:52.046Z,33.60
2023-04-29T14:15:54.566Z,31.80
2023-04-29T14:20:57.009Z,28.30
2023-04-29T14:31:05.696Z,28.40
2023-04-29T14:36:08.840Z,30.00
2023-04-29T14:41:12.428Z,26.40
2023-04-29T14:46:14.563Z,24.20
2023-04-29T14:51:16.805Z,23.10
2023-04-29T14:56:20.480Z,22.00
2023-04-29T15:01:23.016Z,21.20
2023-04-29T15:06:25.402Z,20.80
2023-04-29T15:11:29.114Z,20.60
2023-04-29T15:16:31.810Z,20.40
2023-04-29T15:21:34.526Z,20.30
2023-04-29T15:26:44.838Z,20.40
2023-04-29T15:31:47.262Z,20.40
2023-04-29T15:36:50.132Z,20.70
2023-04-29T15:41:54.143Z,20.70
2023-04-29T15:46:56.449Z,21.00
2023-04-29T15:51:58.402Z,21.10
2023-04-29T15:57:03.612Z,21.40
2023-04-29T16:02:10.563Z,22.10
2023-04-29T16:07:13.273Z,22.40
2023-04-29T16:12:17.166Z,22.10
2023-04-29T16:17:19.139Z,22.00
2023-04-29T16:22:21.278Z,22.60
2023-04-29T16:27:25.088Z,23.30
2023-04-29T16:32:29.030Z,22.70
2023-04-29T16:37:31.603Z,23.00
2023-04-29T16:42:35.078Z,23.00
2023-04-29T16:47:37.865Z,22.80
2023-04-29T16:52:39.916Z,22.40
2023-04-29T16:57:43.952Z,22.20
2023-04-29T17:02:47.067Z,21.60
2023-04-29T17:07:50.979Z,21.10
2023-04-29T17:12:54.940Z,20.60
2023-04-29T17:17:57.398Z,20.30
2023-04-29T17:22:59.497Z,19.80
2023-04-29T17:28:03.927Z,19.30
2023-04-29T17:33:06.703Z,19.10
2023-04-29T17:38:09.870Z,18.90
2023-04-29T17:43:13.886Z,18.80
2023-04-29T17:48:18.679Z,18.60
2023-04-29T17:53:20.628Z,18.30
2023-04-29T17:58:24.550Z,18.20
2023-04-29T18:03:31.101Z,18.10
2023-04-29T18:08:33.366Z,18.10
2023-04-29T18:13:37.721Z,18.00
2023-04-29T18:18:40.015Z,17.90
2023-04-29T18:23:42.445Z,17.80
2023-04-29T18:28:48.464Z,17.60
2023-04-29T18:33:50.592Z,17.50
2023-04-29T18:38:53.351Z,17.40
2023-04-29T18:43:57.239Z,17.30
2023-04-29T18:48:59.331Z,17.40
2023-04-29T18:54:02.315Z,17.30
2023-04-29T18:59:06.008Z,17.10
2023-04-29T19:04:09.995Z,17.00
2023-04-29T19:09:13.842Z,16.90
2023-04-29T19:14:18.032Z,16.70
2023-04-29T19:19:20.857Z,16.70
2023-04-29T19:24:24.567Z,16.50
2023-04-29T19:29:29.139Z,16.30
2023-04-29T19:34:32.163Z,15.90
2023-04-29T19:39:35.593Z,15.50
2023-04-29T19:44:40.616Z,15.30
2023-04-29T19:49:44.140Z,15.20
2023-04-29T19:54:50.634Z,15.10
2023-04-29T19:59:55.119Z,15.00
2023-04-29T20:04:57.734Z,14.80
2023-04-29T20:10:00.386Z,14.90
2023-04-29T20:15:06.089Z,15.00
2023-04-29T20:20:10.931Z,15.00
2023-04-29T20:25:13.622Z,15.00
2023-04-29T20:30:20.359Z,15.00
2023-04-29T20:35:22.678Z,15.10
2023-04-29T20:40:25.528Z,15.10
2023-04-29T20:45:29.629Z,15.20
2023-04-29T20:50:32.143Z,15.10
2023-04-29T20:55:34.525Z,14.90
2023-04-29T21:00:38.191Z,14.60
2023-04-29T21:05:43.127Z,14.40
2023-04-29T21:10:45.892Z,14.40
2023-04-29T21:15:49.740Z,14.40
2023-04-29T21:20:52.197Z,14.30
2023-04-29T21:25:54.425Z,14.20
2023-04-29T21:30:58.955Z,14.00
2023-04-29T21:36:01.041Z,13.70
2023-04-29T21:41:06.372Z,13.50
2023-04-29T21:46:10.352Z,13.40
2023-04-29T21:51:12.368Z,13.40
2023-04-29T21:56:14.366Z,13.50
2023-04-29T22:06:12.303Z,13.60
2023-04-29T22:11:14.397Z,13.60
2023-04-29T22:16:16.833Z,13.70
2023-04-29T22:21:20.660Z,13.80
2023-04-29T22:26:25.649Z,13.80
2023-04-29T22:31:28.191Z,13.80
2023-04-29T22:36:33.028Z,13.80
2023-04-29T22:41:35.252Z,13.70
2023-04-29T22:46:37.304Z,13.70
2023-04-29T22:51:41.653Z,13.60
2023-04-29T22:56:44.001Z,13.70
2023-04-29T23:01:46.462Z,13.60
2023-04-29T23:06:49.907Z,13.50
2023-04-29T23:11:51.934Z,13.60
2023-04-29T23:16:54.299Z,13.50
2023-04-29T23:21:58.005Z,13.50
2023-04-29T23:27:00.142Z,13.50
2023-04-29T23:32:02.619Z,13.40
2023-04-29T23:37:06.315Z,13.40
2023-04-29T23:42:08.291Z,13.30
2023-04-29T23:47:11.671Z,13.20
2023-04-29T23:52:15.564Z,13.20
2023-04-29T23:57:18.119Z,13.20
